Time;durP1;ratioP1;P1;durP2;ratioP2;P2;SDS_P1;SDS_P2;PMS_P1;PMS_P2;Temp;Humidity;BMP_temperature;BMP_pressure;BME280_temperature;BME280_humidity;BME280_pressure;Samples;Min_cycle;Max_cycle;Signal;HPM_P1;HPM_P2
2023/03/10 00:01:21;;;;;;;28.27;17.77;;;2.80;99.90;;;;;;5055173;28;20608;-67
2023/03/10 00:03:48;;;;;;;28.63;18.73;;;2.70;99.90;;;;;;5055161;28;20804;-67
2023/03/10 00:06:16;;;;;;;32.60;20.20;;;2.70;99.90;;;;;;5052139;28;20701;-66
2023/03/10 00:08:42;;;;;;;27.93;19.03;;;2.80;99.90;;;;;;5050780;28;20720;-66
2023/03/10 00:11:08;;;;;;;29.33;18.83;;;2.80;99.90;;;;;;5051920;28;20303;-65
2023/03/10 00:13:34;;;;;;;32.10;20.90;;;3.00;99.90;;;;;;5051075;28;20206;-66
2023/03/10 00:15:59;;;;;;;29.17;18.10;;;3.00;99.90;;;;;;5052485;28;20653;-71
2023/03/10 00:18:25;;;;;;;29.60;19.07;;;2.90;99.90;;;;;;5048465;28;20212;-67
2023/03/10 00:20:52;;;;;;;28.80;20.73;;;3.00;99.90;;;;;;5050854;28;20211;-71
2023/03/10 00:23:18;;;;;;;29.00;20.40;;;3.00;99.90;;;;;;5048196;28;20226;-70
2023/03/10 00:25:44;;;;;;;31.87;19.77;;;3.10;99.90;;;;;;5049954;28;20746;-69
2023/03/10 00:28:09;;;;;;;31.20;18.73;;;3.10;99.90;;;;;;5049763;28;20270;-63
2023/03/10 00:30:35;;;;;;;27.30;17.47;;;3.00;99.90;;;;;;5056202;28;20742;-63
2023/03/10 00:43:53;;;;;;;25.33;17.63;;;3.00;99.90;;;;;;5060336;28;20247;-63
2023/03/10 01:03:08;;;;;;;25.23;16.03;;;2.90;99.90;;;;;;5057827;28;20248;-63
2023/03/10 01:05:34;;;;;;;23.03;15.63;;;2.90;99.90;;;;;;5059772;28;20206;-62
2023/03/10 01:07:59;;;;;;;26.50;16.87;;;2.80;99.90;;;;;;5059489;28;20222;-64
2023/03/10 01:10:25;;;;;;;22.57;14.33;;;2.80;99.90;;;;;;5062359;28;20224;-66
2023/03/10 01:12:50;;;;;;;25.27;15.10;;;2.80;99.90;;;;;;5059516;28;20662;-64
2023/03/10 01:15:16;;;;;;;21.77;15.07;;;2.70;99.90;;;;;;5057381;28;20308;-62
2023/03/10 01:17:41;;;;;;;23.30;15.93;;;2.70;99.90;;;;;;5059003;28;20212;-63
2023/03/10 01:20:12;;;;;;;22.33;15.10;;;2.50;99.90;;;;;;5060654;28;20208;-63
2023/03/10 01:22:38;;;;;;;23.20;15.63;;;2.50;99.90;;;;;;5059619;28;20227;-63
2023/03/10 01:25:04;;;;;;;24.83;14.87;;;2.50;99.90;;;;;;5058328;28;20222;-64
2023/03/10 01:27:29;;;;;;;25.90;17.20;;;2.60;99.90;;;;;;5058712;28;20291;-63
2023/03/10 01:29:55;;;;;;;25.03;16.07;;;2.60;99.90;;;;;;5056503;28;20211;-64
2023/03/10 01:32:20;;;;;;;23.97;15.67;;;2.70;99.90;;;;;;5058244;28;20270;-63
2023/03/10 01:34:46;;;;;;;26.53;16.37;;;2.70;99.90;;;;;;5058388;28;20227;-63
2023/03/10 01:37:11;;;;;;;22.30;15.70;;;2.50;99.90;;;;;;5058617;28;20212;-63
2023/03/10 01:39:37;;;;;;;23.83;16.03;;;2.40;99.90;;;;;;5058444;28;20200;-63
2023/03/10 01:42:03;;;;;;;25.33;14.93;;;2.40;99.90;;;;;;5057998;28;20205;-63
2023/03/10 01:44:28;;;;;;;24.50;17.23;;;2.50;99.90;;;;;;5056616;28;20306;-63
2023/03/10 01:46:54;;;;;;;22.77;14.43;;;2.40;99.90;;;;;;5058707;28;20205;-63
2023/03/10 01:49:40;;;;;;;23.47;14.83;;;2.40;99.90;;;;;;5058558;28;20207;-63
2023/03/10 01:52:17;;;;;;;24.17;15.13;;;2.40;99.90;;;;;;5056615;28;20718;-63
2023/03/10 01:54:48;;;;;;;19.43;13.03;;;2.30;99.90;;;;;;5058608;28;20204;-63
2023/03/10 01:57:15;;;;;;;18.30;12.77;;;2.30;99.90;;;;;;5056761;28;20205;-68
2023/03/10 01:59:42;;;;;;;20.67;13.80;;;2.40;99.90;;;;;;5058506;28;20572;-64
2023/03/10 02:02:08;;;;;;;21.63;14.50;;;2.50;99.90;;;;;;5058668;28;20895;-62
2023/03/10 02:04:41;;;;;;;22.93;13.43;;;2.50;99.90;;;;;;5058231;28;20217;-63
2023/03/10 02:07:07;;;;;;;23.13;15.00;;;2.50;99.90;;;;;;5056256;28;20200;-63
2023/03/10 02:09:37;;;;;;;22.60;14.77;;;2.60;99.90;;;;;;5058447;28;20210;-63
2023/03/10 02:12:04;;;;;;;19.20;13.40;;;2.70;99.90;;;;;;5058191;28;20221;-63
2023/03/10 02:14:30;;;;;;;19.80;13.63;;;2.60;99.90;;;;;;5058224;28;20196;-63
2023/03/10 02:16:56;;;;;;;19.00;13.50;;;2.70;99.90;;;;;;5058039;28;20271;-63
2023/03/10 02:19:41;;;;;;;21.43;13.87;;;2.80;99.90;;;;;;5056191;28;20204;-63
2023/03/10 02:22:09;;;;;;;19.17;12.77;;;2.70;99.90;;;;;;5057739;28;20216;-63
2023/03/10 02:24:51;;;;;;;19.43;12.33;;;2.70;99.90;;;;;;5053329;28;20719;-64
2023/03/10 02:27:32;;;;;;;19.47;12.60;;;2.70;99.90;;;;;;5057801;28;20194;-63
2023/03/10 02:30:22;;;;;;;21.40;13.57;;;2.70;99.90;;;;;;5054175;28;20719;-64
2023/03/10 02:32:52;;;;;;;20.30;13.83;;;2.80;99.90;;;;;;5053811;28;20214;-63
2023/03/10 02:35:18;;;;;;;22.57;14.97;;;2.80;99.90;;;;;;5057567;28;20212;-63
2023/03/10 02:37:44;;;;;;;23.50;14.73;;;2.80;99.90;;;;;;5057827;28;20213;-63
2023/03/10 02:40:32;;;;;;;22.07;14.33;;;2.70;99.90;;;;;;5056296;28;20236;-63
2023/03/10 02:43:04;;;;;;;20.20;12.73;;;2.70;99.90;;;;;;5057965;28;20284;-63
2023/03/10 02:45:33;;;;;;;20.13;13.17;;;2.70;99.90;;;;;;5052583;28;20233;-62
2023/03/10 02:47:58;;;;;;;19.50;13.17;;;2.80;99.90;;;;;;5057415;28;20213;-63
2023/03/10 02:50:27;;;;;;;19.67;13.50;;;2.80;99.90;;;;;;5057169;28;20215;-63
2023/03/10 02:53:00;;;;;;;22.13;13.17;;;2.90;99.90;;;;;;5057422;28;20198;-64
2023/03/10 02:55:26;;;;;;;21.90;13.63;;;2.90;99.90;;;;;;5056872;28;20201;-62
2023/03/10 02:57:51;;;;;;;19.00;12.67;;;2.90;99.90;;;;;;5057177;28;20211;-62
2023/03/10 03:00:17;;;;;;;18.37;12.47;;;2.90;99.90;;;;;;5057277;28;20422;-63
2023/03/10 03:02:42;;;;;;;18.53;13.03;;;2.90;99.90;;;;;;5057112;28;20241;-63
2023/03/10 03:05:08;;;;;;;21.53;12.37;;;3.00;99.90;;;;;;5056751;28;20555;-64
2023/03/10 03:07:34;;;;;;;19.67;12.87;;;3.00;99.90;;;;;;5056860;28;20214;-64
2023/03/10 03:10:00;;;;;;;15.70;11.17;;;3.10;99.90;;;;;;5056861;28;20271;-64
2023/03/10 03:12:25;;;;;;;17.60;11.27;;;3.10;99.90;;;;;;5056785;28;20208;-64
2023/03/10 03:14:51;;;;;;;17.80;10.33;;;2.90;99.90;;;;;;5057255;28;20205;-64
2023/03/10 03:17:16;;;;;;;15.57;10.23;;;2.80;99.90;;;;;;5056800;28;20994;-62
2023/03/10 03:19:42;;;;;;;18.40;12.70;;;2.70;99.90;;;;;;5055419;28;20202;-63
2023/03/10 03:22:07;;;;;;;16.53;11.73;;;2.80;99.90;;;;;;5056477;28;20299;-64
2023/03/10 03:24:33;;;;;;;16.60;11.40;;;2.80;99.90;;;;;;5056927;28;20794;-63
2023/03/10 03:26:58;;;;;;;17.87;11.93;;;2.70;99.90;;;;;;5056586;28;20201;-64
2023/03/10 03:29:24;;;;;;;20.00;12.30;;;2.70;99.90;;;;;;5056612;28;20290;-62
2023/03/10 03:31:49;;;;;;;16.10;10.13;;;2.80;99.90;;;;;;5055656;28;20671;-63
2023/03/10 03:34:15;;;;;;;17.97;12.03;;;2.70;99.90;;;;;;5056191;28;20670;-63
2023/03/10 03:36:41;;;;;;;17.90;11.30;;;2.70;99.90;;;;;;5057699;28;20416;-63
2023/03/10 03:39:06;;;;;;;18.03;11.73;;;2.70;99.90;;;;;;5055898;28;20205;-63
2023/03/10 03:41:32;;;;;;;16.67;11.13;;;2.80;99.90;;;;;;5056329;28;20220;-63
2023/03/10 03:43:58;;;;;;;18.63;11.77;;;2.90;99.90;;;;;;5054607;28;20209;-63
2023/03/10 03:46:23;;;;;;;16.87;11.90;;;2.80;99.90;;;;;;5056257;28;20582;-63
2023/03/10 03:48:49;;;;;;;15.83;12.00;;;2.70;99.90;;;;;;5056268;28;20237;-63
2023/03/10 03:51:14;;;;;;;15.60;11.67;;;2.70;99.90;;;;;;5056368;28;20208;-63
2023/03/10 03:53:40;;;;;;;15.90;11.63;;;2.70;99.90;;;;;;5056311;28;20218;-63
2023/03/10 03:56:06;;;;;;;17.27;11.67;;;2.80;99.90;;;;;;5054362;28;20201;-63
2023/03/10 03:58:31;;;;;;;16.93;11.23;;;2.90;99.90;;;;;;5056537;28;20842;-63
2023/03/10 04:00:57;;;;;;;13.77;10.07;;;2.80;99.90;;;;;;5056498;28;20715;-60
2023/03/10 04:03:22;;;;;;;15.00;11.07;;;2.80;99.90;;;;;;5055735;28;20202;-63
2023/03/10 04:05:48;;;;;;;18.83;10.77;;;2.70;99.90;;;;;;5056234;28;20198;-64
2023/03/10 04:08:13;;;;;;;15.67;10.47;;;2.70;99.90;;;;;;5054519;28;20197;-63
2023/03/10 04:10:39;;;;;;;14.17;10.53;;;2.80;99.90;;;;;;5056075;28;20585;-64
2023/03/10 04:13:05;;;;;;;14.37;9.53;;;2.70;99.90;;;;;;5057574;28;20805;-63
2023/03/10 04:15:30;;;;;;;16.70;9.93;;;2.70;99.90;;;;;;5056027;28;20626;-62
2023/03/10 04:17:56;;;;;;;12.93;10.00;;;2.70;99.90;;;;;;5055879;28;20206;-63
2023/03/10 04:20:23;;;;;;;18.60;10.97;;;2.70;99.90;;;;;;5053952;28;20217;-64
2023/03/10 04:22:50;;;;;;;14.43;10.57;;;2.70;99.90;;;;;;5055826;28;20301;-62
2023/03/10 04:25:15;;;;;;;15.57;11.30;;;2.70;99.90;;;;;;5056027;28;20208;-62
2023/03/10 04:27:41;;;;;;;14.43;10.10;;;2.70;99.90;;;;;;5056029;28;20210;-62
2023/03/10 04:30:08;;;;;;;12.73;9.80;;;2.70;99.90;;;;;;5055789;28;20205;-63
2023/03/10 04:32:33;;;;;;;13.83;9.97;;;2.80;99.90;;;;;;5053559;28;20200;-63
2023/03/10 04:34:59;;;;;;;15.20;10.90;;;2.90;99.90;;;;;;5056019;28;20721;-64
2023/03/10 04:37:26;;;;;;;12.13;9.07;;;3.00;99.90;;;;;;5055632;28;20690;-63
2023/03/10 04:39:51;;;;;;;12.73;8.63;;;3.00;99.90;;;;;;5055913;28;20227;-62
2023/03/10 04:42:17;;;;;;;10.13;8.17;;;3.00;99.90;;;;;;5055865;28;20239;-63
2023/03/10 04:44:43;;;;;;;11.13;8.43;;;3.00;99.90;;;;;;5055070;28;20289;-65
2023/03/10 04:47:08;;;;;;;11.57;8.47;;;3.00;99.90;;;;;;5051129;28;20198;-63
2023/03/10 04:49:36;;;;;;;11.97;8.40;;;3.00;99.90;;;;;;5056025;28;20663;-63
2023/03/10 04:52:01;;;;;;;13.47;8.87;;;3.00;99.90;;;;;;5055878;28;20218;-63
2023/03/10 04:54:27;;;;;;;10.70;8.40;;;3.10;99.90;;;;;;5055747;28;20254;-62
2023/03/10 04:56:52;;;;;;;11.57;9.03;;;3.00;99.90;;;;;;5055500;28;20269;-63
2023/03/10 04:59:20;;;;;;;10.97;7.93;;;3.00;99.90;;;;;;5053422;28;20660;-63
2023/03/10 05:01:46;;;;;;;11.77;8.53;;;3.10;99.90;;;;;;5055716;28;20202;-62
2023/03/10 05:04:11;;;;;;;10.47;8.43;;;3.10;99.90;;;;;;5055220;28;20201;-63
2023/03/10 05:06:37;;;;;;;12.67;9.10;;;3.20;99.90;;;;;;5055450;28;20203;-63
2023/03/10 05:09:03;;;;;;;11.67;8.80;;;3.20;99.90;;;;;;5053871;28;20542;-62
2023/03/10 05:11:29;;;;;;;10.83;8.60;;;3.30;99.90;;;;;;5032180;28;20226;-64
2023/03/10 05:13:55;;;;;;;14.43;9.47;;;3.30;99.90;;;;;;5055334;28;20200;-63
2023/03/10 05:16:21;;;;;;;12.20;9.00;;;3.40;99.90;;;;;;5057152;28;20609;-63
2023/03/10 05:18:47;;;;;;;11.37;8.50;;;3.30;99.90;;;;;;5059172;28;20755;-62
2023/03/10 05:21:13;;;;;;;10.70;8.03;;;3.30;99.90;;;;;;5059245;28;20288;-63
2023/03/10 05:23:38;;;;;;;12.00;8.50;;;3.20;99.90;;;;;;5057064;28;20237;-64
2023/03/10 05:26:06;;;;;;;11.40;9.23;;;3.10;99.90;;;;;;5033561;28;20560;-63
2023/03/10 05:28:32;;;;;;;12.43;10.53;;;3.00;99.90;;;;;;5058720;28;20279;-63
2023/03/10 05:30:58;;;;;;;10.97;8.83;;;3.00;99.90;;;;;;5058676;28;20719;-63
2023/03/10 05:33:24;;;;;;;12.37;8.43;;;3.00;99.90;;;;;;5058803;28;20215;-63
2023/03/10 05:35:49;;;;;;;12.10;9.53;;;3.00;99.90;;;;;;5056676;28;20482;-65
2023/03/10 05:38:15;;;;;;;11.73;9.33;;;3.00;99.90;;;;;;5058469;28;20199;-63
2023/03/10 05:40:41;;;;;;;11.17;8.20;;;3.10;99.90;;;;;;5038949;28;20678;-67
2023/03/10 05:43:07;;;;;;;10.73;9.07;;;3.20;99.90;;;;;;5058865;28;20566;-63
2023/03/10 05:45:32;;;;;;;11.00;9.03;;;3.20;99.90;;;;;;5058839;28;20212;-63
2023/03/10 05:47:58;;;;;;;8.93;7.60;;;3.10;99.90;;;;;;5058895;28;20572;-64
2023/03/10 05:50:23;;;;;;;10.80;8.43;;;3.20;99.90;;;;;;5056587;28;20213;-64
2023/03/10 05:52:49;;;;;;;11.33;8.43;;;3.10;99.90;;;;;;5058489;28;20248;-64
2023/03/10 05:55:18;;;;;;;10.67;8.67;;;3.00;99.90;;;;;;5058572;28;20614;-64
2023/03/10 05:57:44;;;;;;;9.17;8.20;;;3.10;99.90;;;;;;5058163;28;20928;-64
2023/03/10 06:00:11;;;;;;;11.40;9.10;;;3.20;99.90;;;;;;5058485;28;20198;-64
2023/03/10 06:02:40;;;;;;;11.03;8.70;;;3.20;99.90;;;;;;5055986;28;20239;-64
2023/03/10 06:05:07;;;;;;;14.30;10.37;;;3.30;99.90;;;;;;5058634;28;20353;-65
2023/03/10 06:07:34;;;;;;;14.40;10.53;;;3.40;99.90;;;;;;5057995;28;20214;-64
2023/03/10 06:10:00;;;;;;;13.57;9.57;;;3.40;99.90;;;;;;5058021;28;20205;-64
2023/03/10 06:12:25;;;;;;;9.90;8.47;;;3.40;99.90;;;;;;5056329;28;20201;-64
2023/03/10 06:14:51;;;;;;;9.80;8.53;;;3.40;99.90;;;;;;5058016;28;20212;-64
2023/03/10 06:17:16;;;;;;;10.83;8.70;;;3.30;99.90;;;;;;5057995;28;20280;-63
2023/03/10 06:19:41;;;;;;;10.43;8.93;;;3.30;99.90;;;;;;5058074;28;20198;-63
2023/03/10 06:22:07;;;;;;;9.00;8.10;;;3.30;99.90;;;;;;5057569;28;20571;-63
2023/03/10 06:24:33;;;;;;;10.67;9.23;;;3.20;99.90;;;;;;5057715;28;20241;-63
2023/03/10 06:26:58;;;;;;;11.10;9.67;;;3.20;99.90;;;;;;5055409;28;20206;-64
2023/03/10 06:29:24;;;;;;;11.87;9.70;;;3.30;99.90;;;;;;5057438;28;20205;-64
2023/03/10 06:31:49;;;;;;;10.90;9.13;;;3.50;99.90;;;;;;5057860;28;20260;-64
2023/03/10 06:34:15;;;;;;;11.33;8.77;;;3.50;99.90;;;;;;5057606;28;20198;-64
2023/03/10 06:36:40;;;;;;;14.83;10.80;;;3.60;99.90;;;;;;5057647;28;20217;-64
2023/03/10 06:39:06;;;;;;;12.03;9.27;;;3.40;99.90;;;;;;5055482;28;20269;-64
2023/03/10 06:41:33;;;;;;;11.27;9.20;;;3.30;99.90;;;;;;5039271;28;20331;-63
2023/03/10 06:43:59;;;;;;;11.00;9.50;;;3.40;99.90;;;;;;5057500;28;20217;-63
2023/03/10 06:46:24;;;;;;;11.07;9.07;;;3.40;99.90;;;;;;5057406;28;20332;-63
2023/03/10 06:48:50;;;;;;;13.87;9.70;;;3.40;99.90;;;;;;5057416;28;20202;-63
2023/03/10 06:51:19;;;;;;;10.27;8.73;;;3.50;99.90;;;;;;5056830;28;20210;-63
2023/03/10 06:53:45;;;;;;;10.00;9.00;;;3.60;99.90;;;;;;5057281;28;20280;-63
2023/03/10 06:56:14;;;;;;;11.90;9.17;;;3.60;99.90;;;;;;5056947;28;20199;-63
2023/03/10 06:58:40;;;;;;;13.23;9.73;;;3.70;99.90;;;;;;5057254;28;20414;-64
2023/03/10 07:01:07;;;;;;;10.33;9.17;;;3.70;99.90;;;;;;5056940;28;20563;-63
2023/03/10 07:03:33;;;;;;;11.80;9.30;;;3.60;99.90;;;;;;5055720;28;20698;-64
2023/03/10 07:05:59;;;;;;;12.33;9.93;;;3.60;99.90;;;;;;5056928;28;20660;-65
2023/03/10 07:08:28;;;;;;;14.80;10.40;;;3.70;99.90;;;;;;5056984;28;20205;-63
2023/03/10 07:10:55;;;;;;;14.13;10.50;;;3.80;99.90;;;;;;5056638;28;20692;-66
2023/03/10 07:13:20;;;;;;;13.20;9.63;;;3.90;99.90;;;;;;5056866;28;20447;-64
2023/03/10 07:15:47;;;;;;;10.80;8.93;;;3.90;99.90;;;;;;5054632;28;20205;-64
2023/03/10 07:18:14;;;;;;;11.83;8.97;;;4.00;99.90;;;;;;5057043;28;20272;-64
2023/03/10 07:20:41;;;;;;;14.80;10.83;;;4.00;99.90;;;;;;5056653;28;20206;-64
2023/03/10 07:23:07;;;;;;;17.43;11.37;;;4.10;99.90;;;;;;5057139;28;20296;-64
2023/03/10 07:25:36;;;;;;;14.80;10.20;;;4.20;99.90;;;;;;5054872;28;20289;-67
2023/03/10 07:28:02;;;;;;;13.80;11.30;;;4.20;99.90;;;;;;5060738;28;20205;-64
2023/03/10 07:30:28;;;;;;;13.63;11.07;;;4.20;99.90;;;;;;5065083;28;20992;-63
2023/03/10 07:32:53;;;;;;;13.77;10.27;;;4.30;99.90;;;;;;5058041;28;20205;-63
2023/03/10 07:35:19;;;;;;;12.37;11.03;;;4.30;99.90;;;;;;5058610;28;20213;-65
2023/03/10 07:37:44;;;;;;;14.30;10.80;;;4.30;99.90;;;;;;5061594;28;20201;-63
2023/03/10 07:40:10;;;;;;;11.20;9.93;;;4.40;99.90;;;;;;5058532;28;20661;-63
2023/03/10 07:42:36;;;;;;;11.60;9.80;;;4.40;99.90;;;;;;5055626;28;20286;-65
2023/03/10 07:45:02;;;;;;;14.57;11.23;;;4.50;99.90;;;;;;5051968;28;20251;-65
2023/03/10 07:47:27;;;;;;;16.33;11.47;;;4.60;99.90;;;;;;5054509;28;20198;-63
2023/03/10 07:49:53;;;;;;;17.70;11.30;;;4.70;99.90;;;;;;5055519;28;20516;-64
2023/03/10 07:52:19;;;;;;;15.27;11.17;;;4.80;99.90;;;;;;5054481;28;20763;-64
2023/03/10 07:54:45;;;;;;;14.33;10.60;;;4.90;99.90;;;;;;5055553;28;20197;-65
2023/03/10 07:57:12;;;;;;;13.73;10.77;;;4.80;99.90;;;;;;5055537;28;20273;-64
2023/03/10 07:59:37;;;;;;;12.00;9.80;;;4.70;99.90;;;;;;5055588;28;20194;-63
2023/03/10 08:02:03;;;;;;;12.87;9.73;;;4.70;99.90;;;;;;5055531;28;20189;-63
2023/03/10 08:04:29;;;;;;;13.83;10.90;;;4.80;99.90;;;;;;5053360;28;20301;-63
2023/03/10 08:06:55;;;;;;;13.67;11.63;;;5.10;99.90;;;;;;5055372;28;20284;-63
2023/03/10 08:09:20;;;;;;;16.70;10.40;;;5.20;99.90;;;;;;5055072;28;20201;-63
2023/03/10 08:11:46;;;;;;;14.43;10.97;;;5.10;99.90;;;;;;5055044;28;20225;-63
2023/03/10 08:14:12;;;;;;;11.57;10.07;;;5.30;99.90;;;;;;5053857;28;20201;-63
2023/03/10 08:16:38;;;;;;;14.03;11.50;;;5.30;99.90;;;;;;5054805;28;20198;-63
2023/03/10 08:19:03;;;;;;;15.27;11.20;;;5.20;99.90;;;;;;5033224;28;20742;-63
2023/03/10 08:21:29;;;;;;;12.33;10.80;;;5.20;99.90;;;;;;5055226;28;20209;-63
2023/03/10 08:23:54;;;;;;;14.23;10.60;;;5.40;99.90;;;;;;5053684;28;20293;-64
2023/03/10 08:26:20;;;;;;;13.10;10.53;;;5.60;99.90;;;;;;5053177;28;20216;-62
2023/03/10 08:28:46;;;;;;;10.57;9.50;;;5.60;99.90;;;;;;5051689;28;20209;-63
2023/03/10 08:31:17;;;;;;;13.10;10.13;;;5.60;99.90;;;;;;5049936;28;20276;-63
2023/03/10 08:33:44;;;;;;;13.93;11.00;;;5.70;99.90;;;;;;5051394;28;20210;-65
2023/03/10 08:36:18;;;;;;;13.53;10.63;;;5.80;99.90;;;;;;5053552;28;20206;-63
2023/03/10 08:38:45;;;;;;;13.73;11.00;;;5.90;99.90;;;;;;5049691;28;20272;-65
2023/03/10 08:41:17;;;;;;;13.10;10.67;;;5.90;99.90;;;;;;5048947;28;20777;-67
2023/03/10 08:43:42;;;;;;;11.87;9.37;;;5.90;99.90;;;;;;5051741;28;20203;-66
2023/03/10 08:46:09;;;;;;;17.77;11.63;;;6.10;99.90;;;;;;5055645;28;20553;-68
2023/03/10 08:48:35;;;;;;;13.57;10.87;;;6.30;99.90;;;;;;5053927;28;20791;-67
2023/03/10 08:51:01;;;;;;;15.77;11.93;;;6.30;99.90;;;;;;5053355;28;20214;-70
2023/03/10 08:53:26;;;;;;;13.80;11.37;;;6.30;99.90;;;;;;5053692;28;20205;-65
2023/03/10 08:55:52;;;;;;;15.37;11.67;;;6.30;99.90;;;;;;5055794;28;20210;-67
2023/03/10 08:58:17;;;;;;;14.03;11.23;;;6.40;99.90;;;;;;5055229;28;20205;-67
2023/03/10 09:00:43;;;;;;;15.60;12.43;;;6.40;99.90;;;;;;5052646;28;20202;-65
2023/03/10 09:03:13;;;;;;;17.73;11.70;;;6.30;99.90;;;;;;5053246;28;20194;-65
2023/03/10 09:05:39;;;;;;;13.80;11.77;;;6.20;99.90;;;;;;5055779;28;20206;-66
2023/03/10 09:08:06;;;;;;;13.80;11.30;;;6.00;99.90;;;;;;5054928;28;20217;-69
2023/03/10 09:10:31;;;;;;;19.97;12.93;;;6.10;99.90;;;;;;5051599;28;20221;-69
2023/03/10 09:12:57;;;;;;;15.47;12.37;;;6.30;99.90;;;;;;5058874;28;20202;-67
2023/03/10 09:15:23;;;;;;;16.53;12.87;;;6.50;99.90;;;;;;5055838;28;20198;-66
2023/03/10 09:17:48;;;;;;;12.40;11.20;;;6.80;99.90;;;;;;5056980;28;20252;-71
2023/03/10 09:20:14;;;;;;;14.83;12.30;;;6.80;99.90;;;;;;5053369;28;20230;-67
2023/03/10 09:22:41;;;;;;;15.70;12.40;;;6.90;99.90;;;;;;5058305;28;20202;-66
2023/03/10 09:25:08;;;;;;;12.97;11.53;;;6.90;99.90;;;;;;5057298;28;20233;-67
2023/03/10 09:27:34;;;;;;;13.50;12.10;;;6.90;99.90;;;;;;5053978;28;20206;-67
2023/03/10 09:29:59;;;;;;;15.50;12.47;;;6.90;99.90;;;;;;5056322;28;20186;-66
2023/03/10 09:32:25;;;;;;;19.53;14.90;;;7.00;99.90;;;;;;5057407;28;20687;-66
2023/03/10 09:34:50;;;;;;;13.97;12.43;;;7.40;99.90;;;;;;5057729;28;20229;-66
2023/03/10 09:37:16;;;;;;;16.33;13.43;;;7.70;99.90;;;;;;5057603;28;20202;-66
2023/03/10 09:39:41;;;;;;;15.30;12.83;;;7.90;99.90;;;;;;5055549;28;20293;-67
2023/03/10 09:42:26;;;;;;;14.13;12.63;;;7.80;99.90;;;;;;5057707;28;20568;-67
2023/03/10 09:45:10;;;;;;;13.67;12.27;;;8.00;99.90;;;;;;5058025;28;20198;-67
2023/03/10 09:48:00;;;;;;;15.13;12.53;;;8.40;99.90;;;;;;5055710;28;20228;-67
2023/03/10 09:50:39;;;;;;;14.43;12.37;;;8.60;99.90;;;;;;5055004;28;20237;-68
2023/03/10 09:53:32;;;;;;;14.57;11.83;;;7.90;99.90;;;;;;5056453;28;20198;-68
2023/03/10 09:55:58;;;;;;;14.40;11.80;;;7.70;99.90;;;;;;5033813;28;20221;-68
2023/03/10 09:58:31;;;;;;;15.27;12.17;;;7.80;99.90;;;;;;5053391;28;20225;-67
2023/03/10 10:00:59;;;;;;;17.33;13.10;;;7.80;99.90;;;;;;5057341;28;20751;-67
2023/03/10 10:04:03;;;;;;;17.67;12.90;;;7.90;99.90;;;;;;5057613;28;20568;-67
2023/03/10 10:06:35;;;;;;;17.03;12.97;;;8.00;99.90;;;;;;5056670;28;20202;-68
2023/03/10 10:09:14;;;;;;;14.87;11.97;;;7.90;99.90;;;;;;5057949;28;20206;-68
2023/03/10 10:11:40;;;;;;;15.30;12.77;;;8.00;99.90;;;;;;5055568;28;20214;-66
2023/03/10 10:14:19;;;;;;;12.93;11.50;;;7.90;99.90;;;;;;5057960;28;20209;-66
2023/03/10 10:16:52;;;;;;;15.33;11.77;;;8.10;99.90;;;;;;5057579;28;20222;-67
2023/03/10 10:19:23;;;;;;;13.47;11.77;;;8.20;99.90;;;;;;5057097;28;20672;-67
2023/03/10 10:22:14;;;;;;;14.67;12.60;;;8.30;99.90;;;;;;5057431;28;20213;-67
2023/03/10 10:24:39;;;;;;;17.53;12.17;;;8.20;99.90;;;;;;5053882;28;20551;-67
2023/03/10 10:27:05;;;;;;;14.20;11.80;;;8.30;99.90;;;;;;5057154;28;20194;-68
2023/03/10 10:29:36;;;;;;;12.13;10.93;;;8.60;99.90;;;;;;5057222;28;20895;-67
2023/03/10 10:32:14;;;;;;;15.87;11.50;;;8.80;99.90;;;;;;5057242;28;20332;-67
2023/03/10 10:34:41;;;;;;;15.70;13.07;;;8.90;99.90;;;;;;5057030;28;20221;-67
2023/03/10 10:37:34;;;;;;;12.47;11.27;;;8.70;99.90;;;;;;5056609;28;20209;-67
2023/03/10 10:40:00;;;;;;;16.57;11.63;;;8.50;99.90;;;;;;5055964;28;20194;-67
2023/03/10 10:42:31;;;;;;;14.87;12.03;;;8.60;99.90;;;;;;5055062;28;20250;-66
2023/03/10 10:45:01;;;;;;;14.47;12.60;;;8.70;99.90;;;;;;5057270;28;20255;-67
2023/03/10 10:47:54;;;;;;;13.90;12.10;;;9.00;99.90;;;;;;5056842;28;20629;-68
2023/03/10 10:50:22;;;;;;;13.60;10.63;;;9.10;99.90;;;;;;5055643;28;20206;-68
2023/03/10 10:52:51;;;;;;;14.30;10.77;;;8.90;99.90;;;;;;5054980;28;20210;-67
2023/03/10 10:55:33;;;;;;;12.57;11.33;;;9.00;99.90;;;;;;5056894;28;20198;-67
2023/03/10 10:58:01;;;;;;;11.00;9.83;;;8.70;99.90;;;;;;5055614;28;20209;-68
2023/03/10 11:00:32;;;;;;;16.80;11.67;;;8.90;99.90;;;;;;5052997;28;20251;-69
2023/03/10 11:02:58;;;;;;;15.77;11.10;;;9.40;99.90;;;;;;5056922;28;20250;-68
2023/03/10 11:05:36;;;;;;;12.30;11.10;;;9.80;99.90;;;;;;5057115;28;20198;-68
2023/03/10 11:08:25;;;;;;;12.07;10.73;;;10.00;99.90;;;;;;5052299;28;20756;-68
2023/03/10 11:11:10;;;;;;;12.97;11.33;;;10.00;99.90;;;;;;5052022;28;20826;-68
2023/03/10 11:13:54;;;;;;;13.70;11.43;;;9.40;99.90;;;;;;5055991;28;20213;-68
2023/03/10 11:16:27;;;;;;;13.33;10.93;;;9.10;99.90;;;;;;5053799;28;20194;-67
2023/03/10 11:19:00;;;;;;;14.13;11.93;;;9.20;99.90;;;;;;5056804;28;20569;-68
2023/03/10 11:21:30;;;;;;;12.93;11.63;;;8.90;99.90;;;;;;5052631;28;20501;-68
2023/03/10 11:24:07;;;;;;;12.17;10.83;;;8.80;99.90;;;;;;5056245;28;20230;-68
2023/03/10 11:26:49;;;;;;;12.80;11.50;;;8.80;99.90;;;;;;5054621;28;20193;-70
2023/03/10 11:29:30;;;;;;;13.07;11.67;;;8.80;99.90;;;;;;5056197;28;20190;-67
2023/03/10 11:32:27;;;;;;;15.77;11.53;;;8.90;99.90;;;;;;5052877;28;20238;-66
2023/03/10 11:34:53;;;;;;;14.47;10.87;;;8.90;99.90;;;;;;5053780;28;20726;-67
2023/03/10 11:37:33;;;;;;;13.20;8.67;;;9.00;99.90;;;;;;5056124;28;20190;-68
2023/03/10 11:40:29;;;;;;;9.43;8.43;;;8.90;99.90;;;;;;5055594;28;20408;-68
2023/03/10 11:43:04;;;;;;;11.43;8.40;;;8.60;99.90;;;;;;5062116;28;20208;-67
2023/03/10 11:45:41;;;;;;;9.63;8.57;;;8.40;99.90;;;;;;5062851;28;20596;-67
2023/03/10 11:48:44;;;;;;;8.47;7.63;;;8.50;99.90;;;;;;5042408;28;20190;-68
2023/03/10 11:51:35;;;;;;;9.23;8.27;;;8.50;99.90;;;;;;5064823;28;20212;-67
2023/03/10 11:54:18;;;;;;;10.53;8.97;;;8.50;99.90;;;;;;5061488;28;20202;-67
2023/03/10 11:56:45;;;;;;;10.63;9.53;;;8.50;99.90;;;;;;5065427;28;20543;-68
2023/03/10 11:59:20;;;;;;;10.20;9.13;;;8.50;99.90;;;;;;5059107;28;20272;-67
2023/03/10 12:02:12;;;;;;;8.87;7.97;;;8.20;99.90;;;;;;5058667;28;20220;-67
2023/03/10 12:05:02;;;;;;;10.77;9.67;;;8.00;99.90;;;;;;5050141;28;20206;-67
2023/03/10 12:07:37;;;;;;;11.60;9.20;;;8.00;99.90;;;;;;5053021;28;20264;-67
2023/03/10 12:10:11;;;;;;;10.97;9.33;;;8.00;99.90;;;;;;5057828;28;20208;-68
2023/03/10 12:12:45;;;;;;;9.60;8.37;;;7.80;99.90;;;;;;5057734;28;20202;-68
2023/03/10 12:15:21;;;;;;;12.27;8.90;;;7.70;99.90;;;;;;5055589;28;20630;-68
2023/03/10 12:17:48;;;;;;;9.27;8.30;;;7.60;99.90;;;;;;5056530;28;20242;-67
2023/03/10 12:20:16;;;;;;;9.47;8.53;;;7.60;99.90;;;;;;5061683;28;20204;-67
2023/03/10 12:22:55;;;;;;;10.07;8.37;;;7.60;99.90;;;;;;5062969;28;20198;-67
2023/03/10 12:25:27;;;;;;;11.60;9.77;;;7.50;99.90;;;;;;5059634;28;20206;-66
2023/03/10 12:28:14;;;;;;;11.87;9.87;;;7.40;99.90;;;;;;5066180;28;20292;-67
2023/03/10 12:30:58;;;;;;;11.27;9.03;;;7.30;99.90;;;;;;5062708;28;20266;-68
2023/03/10 12:33:29;;;;;;;9.87;8.87;;;7.40;99.90;;;;;;5064462;28;20201;-67
2023/03/10 12:36:33;;;;;;;11.53;10.03;;;7.40;99.90;;;;;;5062975;28;20200;-68
2023/03/10 12:39:30;;;;;;;8.73;7.67;;;7.20;99.90;;;;;;5040825;28;20200;-69
2023/03/10 12:42:00;;;;;;;9.70;8.63;;;7.20;99.90;;;;;;5064229;28;20227;-68
2023/03/10 12:44:34;;;;;;;8.27;7.47;;;7.40;99.90;;;;;;5064200;28;21091;-66
2023/03/10 12:47:23;;;;;;;7.60;6.77;;;7.60;99.90;;;;;;5066405;28;20922;-68
2023/03/10 12:50:04;;;;;;;8.20;6.63;;;7.70;99.90;;;;;;5058341;28;20209;-67
2023/03/10 12:52:43;;;;;;;6.37;5.77;;;8.00;99.90;;;;;;5054974;28;20652;-69
2023/03/10 12:55:20;;;;;;;5.80;5.30;;;8.30;99.90;;;;;;5058781;28;20190;-68
2023/03/10 12:58:10;;;;;;;4.67;4.27;;;8.40;99.90;;;;;;5058830;28;20193;-67
2023/03/10 13:00:45;;;;;;;4.40;4.00;;;8.40;99.90;;;;;;5058520;28;20215;-69
2023/03/10 13:03:28;;;;;;;6.20;5.70;;;8.40;99.90;;;;;;5058720;28;20292;-69
2023/03/10 13:06:17;;;;;;;5.43;4.87;;;8.40;99.90;;;;;;5058405;28;20209;-73
2023/03/10 13:08:53;;;;;;;5.37;4.93;;;8.20;99.90;;;;;;5045909;28;20528;-74
2023/03/10 13:11:26;;;;;;;5.23;4.73;;;8.00;99.90;;;;;;5058222;28;20237;-72
2023/03/10 13:14:21;;;;;;;6.80;6.00;;;8.10;99.90;;;;;;5056043;28;20198;-71
2023/03/10 13:16:54;;;;;;;6.27;5.67;;;8.10;99.90;;;;;;5054091;28;20293;-70
2023/03/10 13:19:22;;;;;;;6.33;5.57;;;8.10;99.90;;;;;;5058241;28;20189;-70
2023/03/10 13:21:50;;;;;;;5.47;4.97;;;8.00;99.90;;;;;;5060412;28;20202;-72